GLO1245 SBRB-SBBR
Flight info
| Callsign | GLO1245 |
|---|---|
| Flight time | 2h 58m |
| Altitude | 37000 |
| Route | ESMAL DCT BUVKI UZ98 ELISA |
| Aircraft | B738/M-SDFGIKLORWXY/LB1 |
Departure
| Time | 2026-05-05 23:15 |
|---|---|
| Airport | Rio Branco-Plácido de Castro International Airport (SBRB) |
Arrival
| Time | 2026-05-06 02:13 |
|---|---|
| Airport | Presidente Juscelino Kubitschek International Airport (SBBR) |
| Time | Latitude | Longitude | Altitude | Speed | Heading |
|---|---|---|---|---|---|
| 2026-05-05 23:01 | -9.86737 | -67.89716 | 625 ft | 0 kts | 328° |
| 2026-05-05 23:08 | -9.86744 | -67.89711 | 625 ft | 4 kts | 332° |
| 2026-05-05 23:08 | -9.86769 | -67.89703 | 625 ft | 4 kts | 4° |
| 2026-05-05 23:08 | -9.86791 | -67.89712 | 625 ft | 3 kts | 54° |
| 2026-05-05 23:09 | -9.86793 | -67.89715 | 625 ft | 1 kts | 57° |
| 2026-05-05 23:10 | -9.86788 | -67.89707 | 625 ft | 3 kts | 57° |
| 2026-05-05 23:11 | -9.86765 | -67.89671 | 633 ft | 9 kts | 58° |
| 2026-05-05 23:11 | -9.86734 | -67.89604 | 630 ft | 11 kts | 56° |
| 2026-05-05 23:11 | -9.86719 | -67.89532 | 625 ft | 11 kts | 105° |
| 2026-05-05 23:11 | -9.86737 | -67.89459 | 632 ft | 11 kts | 103° |
| 2026-05-05 23:12 | -9.86755 | -67.89385 | 630 ft | 11 kts | 104° |
| 2026-05-05 23:12 | -9.86776 | -67.89285 | 628 ft | 19 kts | 100° |
| 2026-05-05 23:12 | -9.86741 | -67.89138 | 626 ft | 25 kts | 56° |
| 2026-05-05 23:12 | -9.86641 | -67.88981 | 617 ft | 27 kts | 57° |
| 2026-05-05 23:13 | -9.86542 | -67.88826 | 607 ft | 25 kts | 57° |
| 2026-05-05 23:13 | -9.86451 | -67.88685 | 616 ft | 19 kts | 51° |
| 2026-05-05 23:13 | -9.86386 | -67.88638 | 613 ft | 6 kts | 26° |
| 2026-05-05 23:13 | -9.86364 | -67.88609 | 617 ft | 6 kts | 94° |
| 2026-05-05 23:14 | -9.86395 | -67.88597 | 611 ft | 6 kts | 213° |
| 2026-05-05 23:14 | -9.86442 | -67.88670 | 617 ft | 38 kts | 237° |
| 2026-05-05 23:14 | -9.86731 | -67.89123 | 621 ft | 112 kts | 237° |
| 2026-05-05 23:14 | -9.87271 | -67.89971 | 633 ft | 173 kts | 237° |
| 2026-05-05 23:15 | -9.87960 | -67.91065 | 1245 ft | 187 kts | 237° |
| 2026-05-05 23:15 | -9.88668 | -67.92226 | 1986 ft | 203 kts | 244° |
| 2026-05-05 23:15 | -9.88850 | -67.93701 | 2223 ft | 227 kts | 285° |
| 2026-05-05 23:15 | -9.87930 | -67.95034 | 2526 ft | 242 kts | 327° |
| 2026-05-05 23:16 | -9.86308 | -67.95487 | 3080 ft | 249 kts | 3° |
| 2026-05-05 23:16 | -9.84641 | -67.95023 | 3802 ft | 251 kts | 31° |
| 2026-05-05 23:16 | -9.83376 | -67.93819 | 4405 ft | 262 kts | 59° |
| 2026-05-05 23:16 | -9.82858 | -67.92029 | 4976 ft | 273 kts | 90° |
| 2026-05-05 23:17 | -9.83152 | -67.90118 | 5751 ft | 276 kts | 104° |
| 2026-05-05 23:17 | -9.83710 | -67.88245 | 6543 ft | 279 kts | 107° |
| 2026-05-05 23:17 | -9.84331 | -67.86376 | 7309 ft | 282 kts | 108° |
| 2026-05-05 23:17 | -9.84969 | -67.84485 | 8058 ft | 285 kts | 108° |
| 2026-05-05 23:18 | -9.85609 | -67.82568 | 8780 ft | 288 kts | 108° |
| 2026-05-05 23:18 | -9.86246 | -67.80633 | 9500 ft | 291 kts | 107° |
| 2026-05-05 23:18 | -9.86885 | -67.78670 | 10181 ft | 296 kts | 107° |
| 2026-05-05 23:18 | -9.87548 | -67.76615 | 10403 ft | 317 kts | 107° |
| 2026-05-05 23:19 | -9.88249 | -67.74425 | 10731 ft | 332 kts | 107° |
| 2026-05-05 23:19 | -9.88969 | -67.72169 | 11314 ft | 338 kts | 107° |
| 2026-05-05 23:19 | -9.89693 | -67.69893 | 11985 ft | 341 kts | 107° |
| 2026-05-05 23:19 | -9.90422 | -67.67594 | 12639 ft | 344 kts | 107° |
| 2026-05-05 23:20 | -9.91157 | -67.65272 | 13282 ft | 347 kts | 107° |
| 2026-05-05 23:20 | -9.91889 | -67.62959 | 13915 ft | 350 kts | 107° |
| 2026-05-05 23:20 | -9.92637 | -67.60592 | 14530 ft | 353 kts | 107° |
| 2026-05-05 23:20 | -9.93392 | -67.58205 | 15126 ft | 356 kts | 107° |
| 2026-05-05 23:21 | -9.94150 | -67.55804 | 15719 ft | 359 kts | 107° |
| 2026-05-05 23:21 | -9.94916 | -67.53378 | 16297 ft | 362 kts | 107° |
| 2026-05-05 23:21 | -9.95687 | -67.50932 | 16853 ft | 365 kts | 107° |
| 2026-05-05 23:21 | -9.96463 | -67.48473 | 17420 ft | 368 kts | 107° |
| 2026-05-05 23:22 | -9.97246 | -67.45990 | 17950 ft | 370 kts | 107° |
| 2026-05-05 23:22 | -9.98034 | -67.43493 | 18469 ft | 373 kts | 107° |
| 2026-05-05 23:22 | -9.98827 | -67.40974 | 18955 ft | 376 kts | 107° |
| 2026-05-05 23:22 | -9.99629 | -67.38430 | 19433 ft | 379 kts | 107° |
| 2026-05-05 23:23 | -10.00426 | -67.35901 | 19922 ft | 381 kts | 107° |
| 2026-05-05 23:23 | -10.01237 | -67.33327 | 20374 ft | 384 kts | 107° |
| 2026-05-05 23:23 | -10.02054 | -67.30732 | 20811 ft | 388 kts | 107° |
| 2026-05-05 23:23 | -10.02876 | -67.28118 | 21265 ft | 390 kts | 107° |
| 2026-05-05 23:24 | -10.03703 | -67.25490 | 21691 ft | 392 kts | 106° |
| 2026-05-05 23:24 | -10.04536 | -67.22842 | 22112 ft | 394 kts | 106° |
| 2026-05-05 23:24 | -10.05371 | -67.20186 | 22525 ft | 397 kts | 106° |
| 2026-05-05 23:24 | -10.06213 | -67.17509 | 22923 ft | 399 kts | 106° |
| 2026-05-05 23:25 | -10.07057 | -67.14823 | 23303 ft | 401 kts | 106° |
| 2026-05-05 23:25 | -10.07905 | -67.12123 | 23699 ft | 402 kts | 106° |
| 2026-05-05 23:25 | -10.08759 | -67.09405 | 24075 ft | 404 kts | 106° |
| 2026-05-05 23:25 | -10.09615 | -67.06677 | 24415 ft | 407 kts | 106° |
| 2026-05-05 23:26 | -10.10476 | -67.03935 | 24747 ft | 409 kts | 106° |
| 2026-05-05 23:26 | -10.11328 | -67.01218 | 25095 ft | 410 kts | 106° |
| 2026-05-05 23:26 | -10.12196 | -66.98452 | 25420 ft | 413 kts | 106° |
| 2026-05-05 23:26 | -10.13068 | -66.95670 | 25719 ft | 415 kts | 106° |
| 2026-05-05 23:27 | -10.13948 | -66.92865 | 26035 ft | 417 kts | 106° |
| 2026-05-05 23:27 | -10.14824 | -66.90053 | 26372 ft | 418 kts | 105° |
| 2026-05-05 23:27 | -10.15667 | -66.87218 | 26667 ft | 420 kts | 105° |
| 2026-05-05 23:27 | -10.16494 | -66.84361 | 26942 ft | 423 kts | 104° |
| 2026-05-05 23:28 | -10.17318 | -66.81485 | 27242 ft | 425 kts | 104° |
| 2026-05-05 23:28 | -10.18145 | -66.78600 | 27534 ft | 426 kts | 104° |
| 2026-05-05 23:28 | -10.18978 | -66.75700 | 27811 ft | 428 kts | 104° |
| 2026-05-05 23:28 | -10.19817 | -66.72790 | 28075 ft | 431 kts | 104° |
| 2026-05-05 23:29 | -10.20650 | -66.69904 | 28340 ft | 432 kts | 105° |
| 2026-05-05 23:29 | -10.21511 | -66.66927 | 28591 ft | 435 kts | 105° |
| 2026-05-05 23:29 | -10.22353 | -66.64018 | 28838 ft | 437 kts | 105° |
| 2026-05-05 23:29 | -10.23210 | -66.61056 | 29097 ft | 438 kts | 105° |
| 2026-05-05 23:30 | -10.24071 | -66.58080 | 29352 ft | 440 kts | 105° |
| 2026-05-05 23:30 | -10.24937 | -66.55087 | 29592 ft | 442 kts | 105° |
| 2026-05-05 23:30 | -10.25804 | -66.52087 | 29816 ft | 444 kts | 105° |
| 2026-05-05 23:30 | -10.26675 | -66.49073 | 30036 ft | 446 kts | 105° |
| 2026-05-05 23:31 | -10.27551 | -66.46042 | 30263 ft | 447 kts | 105° |
| 2026-05-05 23:31 | -10.28427 | -66.43009 | 30488 ft | 449 kts | 105° |
| 2026-05-05 23:31 | -10.29308 | -66.39957 | 30686 ft | 451 kts | 105° |
| 2026-05-05 23:31 | -10.30191 | -66.36897 | 30886 ft | 453 kts | 105° |
| 2026-05-05 23:32 | -10.31077 | -66.33823 | 31105 ft | 454 kts | 105° |
| 2026-05-05 23:32 | -10.31968 | -66.30734 | 31300 ft | 456 kts | 105° |
| 2026-05-05 23:32 | -10.32861 | -66.27635 | 31483 ft | 458 kts | 105° |
| 2026-05-05 23:32 | -10.33758 | -66.24522 | 31671 ft | 459 kts | 105° |
| 2026-05-05 23:33 | -10.34654 | -66.21409 | 31872 ft | 461 kts | 105° |
| 2026-05-05 23:33 | -10.35557 | -66.18273 | 32040 ft | 463 kts | 105° |
| 2026-05-05 23:33 | -10.36461 | -66.15130 | 32216 ft | 464 kts | 105° |
| 2026-05-05 23:33 | -10.37355 | -66.12022 | 32399 ft | 465 kts | 105° |
| 2026-05-05 23:34 | -10.38263 | -66.08865 | 32614 ft | 466 kts | 105° |
| 2026-05-05 23:34 | -10.39172 | -66.05702 | 32861 ft | 465 kts | 105° |
| 2026-05-05 23:34 | -10.40076 | -66.02556 | 33118 ft | 464 kts | 105° |
| 2026-05-05 23:34 | -10.40982 | -65.99404 | 33365 ft | 464 kts | 105° |
| 2026-05-05 23:35 | -10.41886 | -65.96253 | 33584 ft | 464 kts | 105° |
| 2026-05-05 23:35 | -10.42791 | -65.93100 | 33788 ft | 465 kts | 105° |
| 2026-05-05 23:35 | -10.43696 | -65.89945 | 34013 ft | 465 kts | 105° |
| 2026-05-05 23:35 | -10.44598 | -65.86797 | 34263 ft | 464 kts | 105° |
| 2026-05-05 23:36 | -10.45500 | -65.83650 | 34487 ft | 464 kts | 105° |
| 2026-05-05 23:36 | -10.46401 | -65.80505 | 34711 ft | 463 kts | 105° |
| 2026-05-05 23:36 | -10.47300 | -65.77365 | 34945 ft | 463 kts | 105° |
| 2026-05-05 23:36 | -10.48198 | -65.74228 | 35160 ft | 462 kts | 105° |
| 2026-05-05 23:37 | -10.49096 | -65.71091 | 35373 ft | 462 kts | 105° |
| 2026-05-05 23:37 | -10.49994 | -65.67952 | 35577 ft | 461 kts | 105° |
| 2026-05-05 23:37 | -10.50877 | -65.64860 | 35778 ft | 461 kts | 105° |
| 2026-05-05 23:37 | -10.51771 | -65.61733 | 35969 ft | 461 kts | 105° |
| 2026-05-05 23:38 | -10.52665 | -65.58605 | 36157 ft | 460 kts | 105° |
| 2026-05-05 23:38 | -10.53558 | -65.55477 | 36343 ft | 460 kts | 105° |
| 2026-05-05 23:38 | -10.54448 | -65.52357 | 36503 ft | 460 kts | 105° |
| 2026-05-05 23:38 | -10.55340 | -65.49232 | 36671 ft | 460 kts | 105° |
| 2026-05-05 23:39 | -10.56227 | -65.46119 | 36939 ft | 457 kts | 105° |
| 2026-05-05 23:39 | -10.57116 | -65.43004 | 36891 ft | 457 kts | 105° |
| 2026-05-05 23:39 | -10.58756 | -65.36829 | 36903 ft | 447 kts | 102° |
| 2026-05-05 23:40 | -10.60153 | -65.30687 | 36914 ft | 445 kts | 102° |
| 2026-05-05 23:40 | -10.61532 | -65.24554 | 36925 ft | 445 kts | 102° |
| 2026-05-05 23:41 | -10.62932 | -65.18454 | 36913 ft | 446 kts | 102° |
| 2026-05-05 23:41 | -10.64357 | -65.12316 | 36911 ft | 447 kts | 102° |
| 2026-05-05 23:42 | -10.65790 | -65.06157 | 36922 ft | 448 kts | 103° |
| 2026-05-05 23:42 | -10.67224 | -64.99987 | 36910 ft | 449 kts | 103° |
| 2026-05-05 23:43 | -10.68661 | -64.93798 | 36909 ft | 450 kts | 103° |
| 2026-05-05 23:43 | -10.70102 | -64.87583 | 36908 ft | 451 kts | 102° |
| 2026-05-05 23:44 | -10.71543 | -64.81364 | 36910 ft | 452 kts | 103° |
| 2026-05-05 23:44 | -10.72977 | -64.75165 | 36921 ft | 452 kts | 103° |
| 2026-05-05 23:45 | -10.74417 | -64.68936 | 36921 ft | 452 kts | 103° |
| 2026-05-05 23:45 | -10.75858 | -64.62700 | 36920 ft | 452 kts | 103° |
| 2026-05-05 23:46 | -10.77297 | -64.56464 | 36919 ft | 452 kts | 103° |
| 2026-05-05 23:46 | -10.78721 | -64.50285 | 36914 ft | 451 kts | 103° |
| 2026-05-05 23:47 | -10.80151 | -64.44078 | 36905 ft | 450 kts | 103° |
| 2026-05-05 23:47 | -10.81579 | -64.37869 | 36914 ft | 450 kts | 103° |
| 2026-05-05 23:48 | -10.83002 | -64.31678 | 36921 ft | 449 kts | 103° |
| 2026-05-05 23:48 | -10.84423 | -64.25493 | 36919 ft | 449 kts | 103° |
| 2026-05-05 23:49 | -10.85843 | -64.19304 | 36920 ft | 449 kts | 103° |
| 2026-05-05 23:49 | -10.87259 | -64.13124 | 36920 ft | 448 kts | 103° |
| 2026-05-05 23:50 | -10.88676 | -64.06936 | 36928 ft | 448 kts | 103° |
| 2026-05-05 23:50 | -10.90081 | -64.00795 | 36924 ft | 449 kts | 103° |
| 2026-05-05 23:51 | -10.91495 | -63.94607 | 36930 ft | 449 kts | 103° |
| 2026-05-05 23:51 | -10.92911 | -63.88407 | 36929 ft | 450 kts | 103° |
| 2026-05-05 23:52 | -10.94327 | -63.82198 | 36931 ft | 450 kts | 103° |
| 2026-05-05 23:52 | -10.95741 | -63.75992 | 36937 ft | 451 kts | 103° |
| 2026-05-05 23:53 | -10.97159 | -63.69765 | 36937 ft | 451 kts | 103° |
| 2026-05-05 23:53 | -10.98566 | -63.63579 | 36940 ft | 452 kts | 103° |
| 2026-05-05 23:54 | -10.99982 | -63.57346 | 36946 ft | 452 kts | 103° |
| 2026-05-05 23:54 | -11.01399 | -63.51099 | 36945 ft | 452 kts | 103° |
| 2026-05-05 23:55 | -11.02815 | -63.44856 | 36945 ft | 452 kts | 103° |
| 2026-05-05 23:55 | -11.04231 | -63.38606 | 36944 ft | 452 kts | 103° |
| 2026-05-05 23:56 | -11.05405 | -63.33416 | 36942 ft | 452 kts | 103° |
| 2026-05-05 23:56 | -11.07046 | -63.26159 | 36952 ft | 452 kts | 103° |
| 2026-05-05 23:57 | -11.08227 | -63.20929 | 36958 ft | 452 kts | 103° |
| 2026-05-05 23:57 | -11.09626 | -63.14730 | 36952 ft | 452 kts | 103° |
| 2026-05-05 23:58 | -11.11032 | -63.08489 | 36954 ft | 451 kts | 103° |
| 2026-05-05 23:58 | -11.12437 | -63.02250 | 36953 ft | 451 kts | 103° |
| 2026-05-05 23:59 | -11.13839 | -62.96025 | 36953 ft | 451 kts | 103° |
| 2026-05-05 23:59 | -11.15231 | -62.89847 | 36954 ft | 451 kts | 103° |
| 2026-05-06 00:00 | -11.16642 | -62.83580 | 36954 ft | 450 kts | 103° |
| 2026-05-06 00:00 | -11.18032 | -62.77401 | 36961 ft | 450 kts | 103° |
| 2026-05-06 00:01 | -11.19429 | -62.71180 | 36964 ft | 450 kts | 103° |
| 2026-05-06 00:01 | -11.20824 | -62.64961 | 36963 ft | 450 kts | 103° |
| 2026-05-06 00:02 | -11.22220 | -62.58732 | 36964 ft | 450 kts | 103° |
| 2026-05-06 00:02 | -11.23604 | -62.52552 | 36974 ft | 450 kts | 103° |
| 2026-05-06 00:03 | -11.24994 | -62.46335 | 36970 ft | 450 kts | 103° |
| 2026-05-06 00:03 | -11.26382 | -62.40124 | 36974 ft | 449 kts | 103° |
| 2026-05-06 00:04 | -11.27768 | -62.33914 | 36979 ft | 449 kts | 103° |
| 2026-05-06 00:04 | -11.29152 | -62.27710 | 36981 ft | 449 kts | 103° |
| 2026-05-06 00:05 | -11.31218 | -62.18402 | 36981 ft | 448 kts | 103° |
| 2026-05-06 00:06 | -11.32572 | -62.12240 | 36981 ft | 448 kts | 102° |
| 2026-05-06 00:06 | -11.33934 | -62.06042 | 36982 ft | 448 kts | 103° |
| 2026-05-06 00:07 | -11.35296 | -61.99847 | 36990 ft | 448 kts | 103° |
| 2026-05-06 00:07 | -11.36660 | -61.93654 | 36991 ft | 448 kts | 103° |
| 2026-05-06 00:08 | -11.38014 | -61.87497 | 36991 ft | 448 kts | 103° |
| 2026-05-06 00:08 | -11.39376 | -61.81295 | 36991 ft | 448 kts | 103° |
| 2026-05-06 00:09 | -11.40735 | -61.75099 | 36993 ft | 448 kts | 102° |
| 2026-05-06 00:09 | -11.42094 | -61.68895 | 37001 ft | 448 kts | 102° |
| 2026-05-06 00:10 | -11.43450 | -61.62699 | 37000 ft | 448 kts | 102° |
| 2026-05-06 00:10 | -11.44807 | -61.56492 | 37000 ft | 448 kts | 102° |
| 2026-05-06 00:11 | -11.46167 | -61.50271 | 37000 ft | 449 kts | 103° |
| 2026-05-06 00:11 | -11.47525 | -61.44107 | 37008 ft | 449 kts | 103° |
| 2026-05-06 00:12 | -11.48890 | -61.37903 | 37008 ft | 449 kts | 103° |
| 2026-05-06 00:12 | -11.50257 | -61.31679 | 37011 ft | 449 kts | 102° |
| 2026-05-06 00:13 | -11.51581 | -61.25458 | 37009 ft | 449 kts | 101° |
| 2026-05-06 00:13 | -11.52805 | -61.19207 | 37014 ft | 450 kts | 101° |
| 2026-05-06 00:14 | -11.54019 | -61.12944 | 37020 ft | 450 kts | 101° |
| 2026-05-06 00:14 | -11.55243 | -61.06686 | 37018 ft | 450 kts | 101° |
| 2026-05-06 00:15 | -11.56472 | -61.00430 | 37019 ft | 450 kts | 101° |
| 2026-05-06 00:15 | -11.57695 | -60.94207 | 37019 ft | 451 kts | 101° |
| 2026-05-06 00:16 | -11.58927 | -60.87932 | 37019 ft | 451 kts | 101° |
| 2026-05-06 00:16 | -11.60158 | -60.81656 | 37025 ft | 451 kts | 101° |
| 2026-05-06 00:17 | -11.61387 | -60.75375 | 37029 ft | 451 kts | 101° |
| 2026-05-06 00:17 | -11.62615 | -60.69095 | 37027 ft | 452 kts | 101° |
| 2026-05-06 00:18 | -11.63836 | -60.62844 | 37027 ft | 452 kts | 101° |
| 2026-05-06 00:18 | -11.65063 | -60.56556 | 37026 ft | 452 kts | 101° |
| 2026-05-06 00:19 | -11.66291 | -60.50251 | 37028 ft | 452 kts | 101° |
| 2026-05-06 00:19 | -11.67517 | -60.43954 | 37028 ft | 453 kts | 101° |
| 2026-05-06 00:20 | -11.68740 | -60.37658 | 37043 ft | 452 kts | 101° |
| 2026-05-06 00:20 | -11.69957 | -60.31390 | 37034 ft | 453 kts | 101° |
| 2026-05-06 00:21 | -11.71179 | -60.25091 | 37037 ft | 453 kts | 101° |
| 2026-05-06 00:21 | -11.72399 | -60.18790 | 37039 ft | 453 kts | 101° |
| 2026-05-06 00:22 | -11.73619 | -60.12481 | 37037 ft | 453 kts | 101° |
| 2026-05-06 00:22 | -11.74837 | -60.06176 | 37035 ft | 453 kts | 101° |
| 2026-05-06 00:23 | -11.76054 | -59.99867 | 37039 ft | 453 kts | 101° |
| 2026-05-06 00:23 | -11.77264 | -59.93590 | 37035 ft | 453 kts | 101° |
| 2026-05-06 00:24 | -11.78480 | -59.87282 | 37035 ft | 453 kts | 101° |
| 2026-05-06 00:24 | -11.79696 | -59.80970 | 37039 ft | 453 kts | 101° |
| 2026-05-06 00:25 | -11.80909 | -59.74662 | 37037 ft | 453 kts | 101° |
| 2026-05-06 00:25 | -11.82121 | -59.68353 | 37036 ft | 453 kts | 101° |
| 2026-05-06 00:26 | -11.83332 | -59.62041 | 37035 ft | 453 kts | 101° |
| 2026-05-06 00:26 | -11.84533 | -59.55771 | 37042 ft | 453 kts | 101° |
| 2026-05-06 00:27 | -11.85740 | -59.49461 | 37034 ft | 453 kts | 101° |
| 2026-05-06 00:27 | -11.86948 | -59.43142 | 37038 ft | 452 kts | 101° |
| 2026-05-06 00:28 | -11.88151 | -59.36837 | 37036 ft | 452 kts | 101° |
| 2026-05-06 00:28 | -11.89353 | -59.30530 | 37041 ft | 452 kts | 101° |
| 2026-05-06 00:29 | -11.90547 | -59.24260 | 37037 ft | 452 kts | 101° |
| 2026-05-06 00:29 | -11.91745 | -59.17957 | 37038 ft | 452 kts | 101° |
| 2026-05-06 00:30 | -11.92944 | -59.11660 | 37034 ft | 452 kts | 101° |
| 2026-05-06 00:30 | -11.94263 | -59.05384 | 37040 ft | 451 kts | 103° |
| 2026-05-06 00:31 | -11.95636 | -58.99127 | 37036 ft | 451 kts | 103° |
| 2026-05-06 00:31 | -11.96998 | -58.92861 | 37024 ft | 451 kts | 103° |
| 2026-05-06 00:32 | -11.98335 | -58.86643 | 37029 ft | 451 kts | 103° |
| 2026-05-06 00:32 | -11.99676 | -58.80375 | 37026 ft | 450 kts | 103° |
| 2026-05-06 00:33 | -12.01007 | -58.74151 | 37023 ft | 450 kts | 103° |
| 2026-05-06 00:33 | -12.02342 | -58.67900 | 37029 ft | 450 kts | 103° |
| 2026-05-06 00:34 | -12.03676 | -58.61648 | 37027 ft | 450 kts | 103° |
| 2026-05-06 00:34 | -12.05007 | -58.55404 | 37032 ft | 450 kts | 103° |
| 2026-05-06 00:35 | -12.06337 | -58.49157 | 37026 ft | 450 kts | 103° |
| 2026-05-06 00:35 | -12.07666 | -58.42911 | 37018 ft | 450 kts | 103° |
| 2026-05-06 00:36 | -12.08986 | -58.36694 | 37019 ft | 450 kts | 103° |
| 2026-05-06 00:36 | -12.10312 | -58.30442 | 37018 ft | 450 kts | 103° |
| 2026-05-06 00:37 | -12.11638 | -58.24186 | 37019 ft | 450 kts | 103° |
| 2026-05-06 00:37 | -12.12953 | -58.17972 | 37019 ft | 450 kts | 103° |
| 2026-05-06 00:38 | -12.14274 | -58.11727 | 37018 ft | 450 kts | 103° |
| 2026-05-06 00:38 | -12.15588 | -58.05485 | 37019 ft | 449 kts | 103° |
| 2026-05-06 00:39 | -12.16901 | -57.99229 | 37011 ft | 450 kts | 103° |
| 2026-05-06 00:39 | -12.18210 | -57.92983 | 37009 ft | 449 kts | 103° |
| 2026-05-06 00:40 | -12.19519 | -57.86736 | 37008 ft | 449 kts | 103° |
| 2026-05-06 00:40 | -12.20827 | -57.80481 | 37010 ft | 449 kts | 103° |
| 2026-05-06 00:41 | -12.22124 | -57.74272 | 37009 ft | 449 kts | 103° |
| 2026-05-06 00:41 | -12.23428 | -57.68025 | 37008 ft | 449 kts | 103° |
| 2026-05-06 00:42 | -12.24732 | -57.61770 | 37010 ft | 449 kts | 103° |
| 2026-05-06 00:42 | -12.26035 | -57.55521 | 37009 ft | 450 kts | 103° |
| 2026-05-06 00:43 | -12.27339 | -57.49263 | 37004 ft | 450 kts | 103° |
| 2026-05-06 00:43 | -12.28634 | -57.43045 | 36997 ft | 450 kts | 103° |
| 2026-05-06 00:44 | -12.29937 | -57.36775 | 37003 ft | 451 kts | 103° |
| 2026-05-06 00:44 | -12.31239 | -57.30503 | 36999 ft | 451 kts | 103° |
| 2026-05-06 00:45 | -12.32541 | -57.24222 | 37001 ft | 452 kts | 103° |
| 2026-05-06 00:45 | -12.33625 | -57.18989 | 37000 ft | 452 kts | 103° |
| 2026-05-06 00:46 | -12.34928 | -57.12692 | 37000 ft | 452 kts | 103° |
| 2026-05-06 00:46 | -12.36231 | -57.06386 | 37001 ft | 453 kts | 103° |
| 2026-05-06 00:47 | -12.37744 | -56.99053 | 36998 ft | 453 kts | 103° |
| 2026-05-06 00:47 | -12.38833 | -56.93767 | 37002 ft | 453 kts | 103° |
| 2026-05-06 00:48 | -12.40133 | -56.87454 | 37000 ft | 454 kts | 103° |
| 2026-05-06 00:48 | -12.41432 | -56.81135 | 37000 ft | 454 kts | 103° |
| 2026-05-06 00:49 | -12.42730 | -56.74813 | 36997 ft | 454 kts | 103° |
| 2026-05-06 00:49 | -12.44025 | -56.68494 | 36990 ft | 454 kts | 103° |
| 2026-05-06 00:50 | -12.45311 | -56.62210 | 36990 ft | 454 kts | 103° |
| 2026-05-06 00:50 | -12.46604 | -56.55887 | 36990 ft | 454 kts | 103° |
| 2026-05-06 00:51 | -12.47895 | -56.49565 | 36991 ft | 454 kts | 103° |
| 2026-05-06 00:51 | -12.49186 | -56.43230 | 36990 ft | 454 kts | 103° |
| 2026-05-06 00:52 | -12.50473 | -56.36912 | 36992 ft | 453 kts | 103° |
| 2026-05-06 00:52 | -12.51759 | -56.30590 | 36991 ft | 454 kts | 103° |
| 2026-05-06 00:53 | -12.53043 | -56.24270 | 36990 ft | 453 kts | 103° |
| 2026-05-06 00:53 | -12.54337 | -56.17957 | 36991 ft | 453 kts | 103° |
| 2026-05-06 00:54 | -12.55646 | -56.11645 | 36991 ft | 453 kts | 103° |
| 2026-05-06 00:54 | -12.56953 | -56.05335 | 36991 ft | 453 kts | 103° |
| 2026-05-06 00:55 | -12.58257 | -55.99018 | 36990 ft | 453 kts | 103° |
| 2026-05-06 00:55 | -12.59551 | -55.92737 | 36993 ft | 453 kts | 103° |
| 2026-05-06 00:56 | -12.60850 | -55.86421 | 37001 ft | 453 kts | 103° |
| 2026-05-06 00:56 | -12.62149 | -55.80102 | 37001 ft | 453 kts | 103° |
| 2026-05-06 00:57 | -12.63445 | -55.73787 | 37000 ft | 454 kts | 103° |
| 2026-05-06 00:57 | -12.64744 | -55.67452 | 37001 ft | 454 kts | 103° |
| 2026-05-06 00:58 | -12.66041 | -55.61115 | 37001 ft | 454 kts | 103° |
| 2026-05-06 00:58 | -12.67330 | -55.54814 | 37000 ft | 455 kts | 103° |
| 2026-05-06 00:59 | -12.68627 | -55.48460 | 37002 ft | 455 kts | 103° |
| 2026-05-06 00:59 | -12.69923 | -55.42106 | 36999 ft | 456 kts | 103° |
| 2026-05-06 01:00 | -12.71220 | -55.35740 | 37000 ft | 456 kts | 103° |
| 2026-05-06 01:00 | -12.72514 | -55.29378 | 36999 ft | 456 kts | 103° |
| 2026-05-06 01:01 | -12.73807 | -55.23013 | 37002 ft | 457 kts | 103° |
| 2026-05-06 01:01 | -12.75092 | -55.16680 | 36999 ft | 457 kts | 103° |
| 2026-05-06 01:02 | -12.76385 | -55.10303 | 37001 ft | 457 kts | 103° |
| 2026-05-06 01:02 | -12.77674 | -55.03931 | 37006 ft | 457 kts | 103° |
| 2026-05-06 01:03 | -12.78963 | -54.97555 | 37010 ft | 457 kts | 103° |
| 2026-05-06 01:03 | -12.80251 | -54.91176 | 37009 ft | 457 kts | 103° |
| 2026-05-06 01:04 | -12.81536 | -54.84803 | 37010 ft | 457 kts | 103° |
| 2026-05-06 01:04 | -12.82821 | -54.78418 | 37010 ft | 457 kts | 103° |
| 2026-05-06 01:05 | -12.84104 | -54.72038 | 37008 ft | 457 kts | 103° |
| 2026-05-06 01:05 | -12.85386 | -54.65651 | 37012 ft | 457 kts | 103° |
| 2026-05-06 01:06 | -12.86668 | -54.59263 | 37009 ft | 457 kts | 103° |
| 2026-05-06 01:06 | -12.87944 | -54.52918 | 37008 ft | 458 kts | 104° |
| 2026-05-06 01:07 | -12.89232 | -54.46532 | 37010 ft | 458 kts | 104° |
| 2026-05-06 01:07 | -12.90520 | -54.40137 | 37009 ft | 458 kts | 104° |
| 2026-05-06 01:08 | -12.91804 | -54.33745 | 37010 ft | 458 kts | 103° |
| 2026-05-06 01:08 | -12.93086 | -54.27358 | 37021 ft | 458 kts | 103° |
| 2026-05-06 01:09 | -12.94368 | -54.20959 | 37017 ft | 458 kts | 103° |
| 2026-05-06 01:09 | -12.95640 | -54.14606 | 37020 ft | 458 kts | 103° |
| 2026-05-06 01:10 | -12.96907 | -54.08209 | 37017 ft | 458 kts | 103° |
| 2026-05-06 01:10 | -12.98162 | -54.01805 | 37019 ft | 458 kts | 103° |
| 2026-05-06 01:11 | -12.99417 | -53.95399 | 37013 ft | 458 kts | 103° |
| 2026-05-06 01:11 | -13.00672 | -53.88991 | 37021 ft | 458 kts | 103° |
| 2026-05-06 01:12 | -13.01929 | -53.82571 | 37017 ft | 459 kts | 103° |
| 2026-05-06 01:12 | -13.03183 | -53.76153 | 37021 ft | 459 kts | 103° |
| 2026-05-06 01:13 | -13.04435 | -53.69735 | 37030 ft | 459 kts | 103° |
| 2026-05-06 01:13 | -13.05679 | -53.63352 | 37029 ft | 459 kts | 103° |
| 2026-05-06 01:14 | -13.07556 | -53.53703 | 37030 ft | 460 kts | 103° |
| 2026-05-06 01:14 | -13.08810 | -53.47270 | 37031 ft | 460 kts | 104° |
| 2026-05-06 01:15 | -13.10076 | -53.40833 | 37029 ft | 460 kts | 104° |
| 2026-05-06 01:15 | -13.11342 | -53.34392 | 37027 ft | 461 kts | 104° |
| 2026-05-06 01:16 | -13.12606 | -53.27945 | 37026 ft | 461 kts | 104° |
| 2026-05-06 01:16 | -13.13868 | -53.21493 | 37028 ft | 461 kts | 104° |
| 2026-05-06 01:17 | -13.15128 | -53.15042 | 37024 ft | 461 kts | 104° |
| 2026-05-06 01:17 | -13.16389 | -53.08580 | 37040 ft | 461 kts | 104° |
| 2026-05-06 01:18 | -13.17636 | -53.02177 | 37035 ft | 461 kts | 104° |
| 2026-05-06 01:18 | -13.18892 | -52.95720 | 37041 ft | 461 kts | 104° |
| 2026-05-06 01:19 | -13.20147 | -52.89260 | 37037 ft | 461 kts | 104° |
| 2026-05-06 01:19 | -13.21400 | -52.82800 | 37034 ft | 461 kts | 104° |
| 2026-05-06 01:20 | -13.22651 | -52.76340 | 37033 ft | 462 kts | 104° |
| 2026-05-06 01:20 | -13.23901 | -52.69877 | 37039 ft | 462 kts | 104° |
| 2026-05-06 01:21 | -13.25143 | -52.63450 | 37037 ft | 462 kts | 104° |
| 2026-05-06 01:21 | -13.26391 | -52.56979 | 37040 ft | 462 kts | 104° |
| 2026-05-06 01:22 | -13.27638 | -52.50502 | 37038 ft | 462 kts | 104° |
| 2026-05-06 01:22 | -13.28867 | -52.44012 | 37040 ft | 463 kts | 103° |
| 2026-05-06 01:23 | -13.30048 | -52.37513 | 37042 ft | 463 kts | 103° |
| 2026-05-06 01:23 | -13.31227 | -52.31008 | 37053 ft | 463 kts | 103° |
| 2026-05-06 01:24 | -13.32406 | -52.24525 | 37102 ft | 462 kts | 103° |
| 2026-05-06 01:24 | -13.33580 | -52.18080 | 37104 ft | 462 kts | 103° |
| 2026-05-06 01:25 | -13.34760 | -52.11589 | 37103 ft | 463 kts | 103° |
| 2026-05-06 01:25 | -13.35940 | -52.05086 | 37099 ft | 463 kts | 103° |
| 2026-05-06 01:26 | -13.37256 | -51.98601 | 37101 ft | 463 kts | 106° |
| 2026-05-06 01:26 | -13.38738 | -51.92163 | 37101 ft | 463 kts | 107° |
| 2026-05-06 01:27 | -13.40200 | -51.85764 | 37108 ft | 463 kts | 106° |
| 2026-05-06 01:27 | -13.41646 | -51.79300 | 37100 ft | 464 kts | 106° |
| 2026-05-06 01:28 | -13.43080 | -51.72834 | 37112 ft | 464 kts | 106° |
| 2026-05-06 01:28 | -13.44513 | -51.66357 | 37113 ft | 464 kts | 106° |
| 2026-05-06 01:29 | -13.45945 | -51.59886 | 37112 ft | 465 kts | 106° |
| 2026-05-06 01:29 | -13.47365 | -51.53456 | 37114 ft | 464 kts | 106° |
| 2026-05-06 01:30 | -13.48794 | -51.46984 | 37112 ft | 464 kts | 106° |
| 2026-05-06 01:30 | -13.50222 | -51.40507 | 37114 ft | 464 kts | 106° |
| 2026-05-06 01:31 | -13.51644 | -51.34044 | 37119 ft | 464 kts | 106° |
| 2026-05-06 01:31 | -13.52837 | -51.28677 | 37119 ft | 462 kts | 109° |
| 2026-05-06 01:32 | -13.55330 | -51.22688 | 37114 ft | 452 kts | 127° |
| 2026-05-06 01:32 | -13.58901 | -51.17393 | 37115 ft | 450 kts | 129° |
| 2026-05-06 01:33 | -13.62513 | -51.12142 | 37119 ft | 450 kts | 129° |
| 2026-05-06 01:33 | -13.66102 | -51.06860 | 37121 ft | 450 kts | 129° |
| 2026-05-06 01:34 | -13.69671 | -51.01559 | 37126 ft | 451 kts | 129° |
| 2026-05-06 01:34 | -13.73230 | -50.96253 | 37130 ft | 451 kts | 129° |
| 2026-05-06 01:35 | -13.76791 | -50.90940 | 37132 ft | 451 kts | 129° |
| 2026-05-06 01:35 | -13.80353 | -50.85625 | 37129 ft | 451 kts | 129° |
| 2026-05-06 01:36 | -13.83911 | -50.80312 | 37132 ft | 451 kts | 129° |
| 2026-05-06 01:36 | -13.87475 | -50.74988 | 37140 ft | 451 kts | 129° |
| 2026-05-06 01:37 | -13.91011 | -50.69703 | 37138 ft | 451 kts | 129° |
| 2026-05-06 01:37 | -13.94571 | -50.64379 | 37138 ft | 451 kts | 129° |
| 2026-05-06 01:38 | -13.98131 | -50.59052 | 37143 ft | 451 kts | 129° |
| 2026-05-06 01:38 | -14.01684 | -50.53729 | 37146 ft | 450 kts | 129° |
| 2026-05-06 01:39 | -14.05226 | -50.48421 | 37147 ft | 450 kts | 129° |
| 2026-05-06 01:39 | -14.08767 | -50.43111 | 37150 ft | 449 kts | 129° |
| 2026-05-06 01:40 | -14.12276 | -50.37846 | 37153 ft | 448 kts | 129° |
| 2026-05-06 01:40 | -14.15801 | -50.32554 | 37157 ft | 448 kts | 129° |
| 2026-05-06 01:41 | -14.19325 | -50.27260 | 37159 ft | 447 kts | 129° |
| 2026-05-06 01:41 | -14.22843 | -50.21971 | 37162 ft | 447 kts | 129° |
| 2026-05-06 01:42 | -14.26363 | -50.16677 | 37166 ft | 447 kts | 129° |
| 2026-05-06 01:42 | -14.29873 | -50.11393 | 37179 ft | 447 kts | 129° |
| 2026-05-06 01:43 | -14.33387 | -50.06099 | 37177 ft | 447 kts | 129° |
| 2026-05-06 01:43 | -14.36875 | -50.00843 | 37177 ft | 447 kts | 129° |
| 2026-05-06 01:44 | -14.40388 | -49.95545 | 37195 ft | 447 kts | 129° |
| 2026-05-06 01:44 | -14.43900 | -49.90244 | 37176 ft | 448 kts | 129° |
| 2026-05-06 01:45 | -14.47412 | -49.84940 | 37198 ft | 448 kts | 129° |
| 2026-05-06 01:45 | -14.50931 | -49.79622 | 37194 ft | 448 kts | 129° |
| 2026-05-06 01:46 | -14.54443 | -49.74311 | 37199 ft | 448 kts | 130° |
| 2026-05-06 01:46 | -14.57931 | -49.69033 | 37202 ft | 448 kts | 130° |
| 2026-05-06 01:47 | -14.61435 | -49.63726 | 37208 ft | 447 kts | 130° |
| 2026-05-06 01:47 | -14.64936 | -49.58420 | 37213 ft | 447 kts | 130° |
| 2026-05-06 01:48 | -14.68453 | -49.53092 | 36694 ft | 452 kts | 130° |
| 2026-05-06 01:48 | -14.70038 | -49.50274 | 36153 ft | 458 kts | 118° |
| 2026-05-06 01:48 | -14.71205 | -49.47205 | 35598 ft | 460 kts | 115° |
| 2026-05-06 01:49 | -14.72279 | -49.44078 | 34943 ft | 462 kts | 115° |
| 2026-05-06 01:49 | -14.73342 | -49.40933 | 34289 ft | 463 kts | 115° |
| 2026-05-06 01:49 | -14.74427 | -49.37791 | 33615 ft | 464 kts | 115° |
| 2026-05-06 01:49 | -14.75537 | -49.34661 | 32925 ft | 465 kts | 116° |
| 2026-05-06 01:50 | -14.76672 | -49.31516 | 32232 ft | 466 kts | 116° |
| 2026-05-06 01:50 | -14.77806 | -49.28397 | 31749 ft | 462 kts | 116° |
| 2026-05-06 01:50 | -14.78932 | -49.25304 | 31234 ft | 459 kts | 116° |
| 2026-05-06 01:50 | -14.80037 | -49.22262 | 30739 ft | 455 kts | 115° |
| 2026-05-06 01:51 | -14.81067 | -49.19427 | 30282 ft | 451 kts | 115° |
| 2026-05-06 01:51 | -14.82183 | -49.16411 | 29791 ft | 447 kts | 116° |
| 2026-05-06 01:51 | -14.83307 | -49.13423 | 29290 ft | 443 kts | 116° |
| 2026-05-06 01:51 | -14.84423 | -49.10474 | 28776 ft | 439 kts | 116° |
| 2026-05-06 01:52 | -14.85531 | -49.07547 | 28289 ft | 435 kts | 115° |
| 2026-05-06 01:52 | -14.86626 | -49.04645 | 27792 ft | 431 kts | 115° |
| 2026-05-06 01:52 | -14.87710 | -49.01767 | 27291 ft | 428 kts | 115° |
| 2026-05-06 01:52 | -14.88785 | -48.98909 | 26799 ft | 425 kts | 115° |
| 2026-05-06 01:53 | -14.89851 | -48.96069 | 26305 ft | 421 kts | 114° |
| 2026-05-06 01:53 | -14.90906 | -48.93257 | 25822 ft | 418 kts | 114° |
| 2026-05-06 01:53 | -14.91938 | -48.90504 | 25339 ft | 415 kts | 114° |
| 2026-05-06 01:53 | -14.92978 | -48.87732 | 24860 ft | 412 kts | 114° |
| 2026-05-06 01:54 | -14.94008 | -48.84981 | 24381 ft | 408 kts | 114° |
| 2026-05-06 01:54 | -14.95031 | -48.82250 | 23895 ft | 406 kts | 113° |
| 2026-05-06 01:54 | -14.96046 | -48.79538 | 23411 ft | 403 kts | 113° |
| 2026-05-06 01:54 | -14.97053 | -48.76848 | 22931 ft | 400 kts | 113° |
| 2026-05-06 01:55 | -14.98052 | -48.74176 | 22453 ft | 397 kts | 113° |
| 2026-05-06 01:55 | -14.99043 | -48.71525 | 21988 ft | 394 kts | 113° |
| 2026-05-06 01:55 | -15.00026 | -48.68895 | 21502 ft | 391 kts | 113° |
| 2026-05-06 01:55 | -15.01005 | -48.66275 | 21030 ft | 388 kts | 112° |
| 2026-05-06 01:56 | -15.02142 | -48.63772 | 20533 ft | 383 kts | 126° |
| 2026-05-06 01:56 | -15.03921 | -48.61763 | 20089 ft | 377 kts | 143° |
| 2026-05-06 01:56 | -15.06144 | -48.60366 | 19639 ft | 372 kts | 153° |
| 2026-05-06 01:56 | -15.08449 | -48.59167 | 19173 ft | 370 kts | 154° |
| 2026-05-06 01:57 | -15.10758 | -48.58007 | 18704 ft | 367 kts | 154° |
| 2026-05-06 01:57 | -15.13024 | -48.56870 | 18261 ft | 365 kts | 154° |
| 2026-05-06 01:57 | -15.15297 | -48.55720 | 17816 ft | 363 kts | 154° |
| 2026-05-06 01:57 | -15.17552 | -48.54568 | 17368 ft | 360 kts | 154° |
| 2026-05-06 01:58 | -15.19792 | -48.53417 | 16917 ft | 358 kts | 154° |
| 2026-05-06 01:58 | -15.22014 | -48.52269 | 16479 ft | 356 kts | 153° |
| 2026-05-06 01:58 | -15.24223 | -48.51125 | 16040 ft | 353 kts | 153° |
| 2026-05-06 01:58 | -15.26414 | -48.49988 | 15599 ft | 351 kts | 153° |
| 2026-05-06 01:59 | -15.28595 | -48.48856 | 15166 ft | 349 kts | 153° |
| 2026-05-06 01:59 | -15.30758 | -48.47732 | 14735 ft | 347 kts | 153° |
| 2026-05-06 01:59 | -15.32914 | -48.46612 | 14306 ft | 345 kts | 152° |
| 2026-05-06 01:59 | -15.35061 | -48.45496 | 13869 ft | 344 kts | 152° |
| 2026-05-06 02:00 | -15.37191 | -48.44389 | 13438 ft | 342 kts | 152° |
| 2026-05-06 02:00 | -15.39307 | -48.43288 | 13012 ft | 340 kts | 152° |
| 2026-05-06 02:00 | -15.41397 | -48.42201 | 12584 ft | 339 kts | 152° |
| 2026-05-06 02:00 | -15.43500 | -48.41107 | 12152 ft | 337 kts | 152° |
| 2026-05-06 02:01 | -15.45594 | -48.40017 | 11719 ft | 336 kts | 152° |
| 2026-05-06 02:01 | -15.47681 | -48.38931 | 11310 ft | 334 kts | 151° |
| 2026-05-06 02:01 | -15.49755 | -48.37851 | 10910 ft | 332 kts | 151° |
| 2026-05-06 02:01 | -15.51784 | -48.36795 | 10780 ft | 321 kts | 151° |
| 2026-05-06 02:02 | -15.53752 | -48.35771 | 10628 ft | 312 kts | 151° |
| 2026-05-06 02:02 | -15.55664 | -48.34776 | 10488 ft | 303 kts | 151° |
| 2026-05-06 02:02 | -15.57519 | -48.33809 | 10363 ft | 294 kts | 151° |
| 2026-05-06 02:02 | -15.59324 | -48.32869 | 10227 ft | 287 kts | 150° |
| 2026-05-06 02:03 | -15.61093 | -48.31955 | 10052 ft | 281 kts | 151° |
| 2026-05-06 02:03 | -15.62827 | -48.31064 | 9874 ft | 276 kts | 151° |
| 2026-05-06 02:03 | -15.64531 | -48.30189 | 9718 ft | 271 kts | 150° |
| 2026-05-06 02:03 | -15.66216 | -48.29323 | 9551 ft | 269 kts | 150° |
| 2026-05-06 02:04 | -15.67887 | -48.28463 | 9390 ft | 265 kts | 150° |
| 2026-05-06 02:04 | -15.69524 | -48.27621 | 9217 ft | 260 kts | 150° |
| 2026-05-06 02:04 | -15.71089 | -48.26815 | 9069 ft | 254 kts | 150° |
| 2026-05-06 02:04 | -15.72659 | -48.26006 | 8912 ft | 248 kts | 150° |
| 2026-05-06 02:05 | -15.74192 | -48.25217 | 8757 ft | 243 kts | 150° |
| 2026-05-06 02:05 | -15.75685 | -48.24448 | 8612 ft | 237 kts | 149° |
| 2026-05-06 02:05 | -15.77150 | -48.23694 | 8456 ft | 232 kts | 149° |
| 2026-05-06 02:05 | -15.78583 | -48.22964 | 8316 ft | 227 kts | 153° |
| 2026-05-06 02:06 | -15.80132 | -48.22590 | 8179 ft | 230 kts | 169° |
| 2026-05-06 02:06 | -15.81707 | -48.22407 | 8052 ft | 232 kts | 169° |
| 2026-05-06 02:06 | -15.83332 | -48.22199 | 7739 ft | 242 kts | 167° |
| 2026-05-06 02:06 | -15.84840 | -48.21556 | 7509 ft | 230 kts | 136° |
| 2026-05-06 02:07 | -15.85808 | -48.20315 | 7390 ft | 215 kts | 117° |
| 2026-05-06 02:07 | -15.86455 | -48.18956 | 7233 ft | 205 kts | 114° |
| 2026-05-06 02:07 | -15.87039 | -48.17638 | 7082 ft | 198 kts | 114° |
| 2026-05-06 02:07 | -15.87558 | -48.16323 | 6947 ft | 196 kts | 100° |
| 2026-05-06 02:08 | -15.87636 | -48.14923 | 6868 ft | 193 kts | 92° |
| 2026-05-06 02:08 | -15.87648 | -48.13548 | 6748 ft | 187 kts | 90° |
| 2026-05-06 02:08 | -15.87599 | -48.12224 | 6631 ft | 182 kts | 88° |
| 2026-05-06 02:08 | -15.87525 | -48.10915 | 6506 ft | 180 kts | 88° |
| 2026-05-06 02:09 | -15.87444 | -48.09623 | 6393 ft | 177 kts | 88° |
| 2026-05-06 02:09 | -15.87359 | -48.08319 | 6321 ft | 180 kts | 88° |
| 2026-05-06 02:09 | -15.87277 | -48.07055 | 6176 ft | 169 kts | 88° |
| 2026-05-06 02:09 | -15.87200 | -48.05876 | 5929 ft | 158 kts | 88° |
| 2026-05-06 02:10 | -15.87127 | -48.04735 | 5727 ft | 159 kts | 88° |
| 2026-05-06 02:10 | -15.87053 | -48.03593 | 5521 ft | 158 kts | 88° |
| 2026-05-06 02:10 | -15.86980 | -48.02452 | 5316 ft | 159 kts | 87° |
| 2026-05-06 02:10 | -15.86905 | -48.01291 | 5107 ft | 162 kts | 87° |
| 2026-05-06 02:11 | -15.86829 | -48.00119 | 4891 ft | 162 kts | 87° |
| 2026-05-06 02:11 | -15.86754 | -47.98961 | 4673 ft | 159 kts | 87° |
| 2026-05-06 02:11 | -15.86680 | -47.97812 | 4464 ft | 159 kts | 87° |
| 2026-05-06 02:11 | -15.86607 | -47.96664 | 4251 ft | 159 kts | 87° |
| 2026-05-06 02:12 | -15.86534 | -47.95534 | 4042 ft | 159 kts | 87° |
| 2026-05-06 02:12 | -15.86461 | -47.94392 | 3831 ft | 158 kts | 87° |
| 2026-05-06 02:12 | -15.86384 | -47.93252 | 3622 ft | 158 kts | 88° |
| 2026-05-06 02:12 | -15.86315 | -47.92117 | 3466 ft | 152 kts | 86° |
| 2026-05-06 02:13 | -15.86260 | -47.91241 | 3466 ft | 89 kts | 86° |
| 2026-05-06 02:13 | -15.86247 | -47.90878 | 3477 ft | 21 kts | 103° |
| 2026-05-06 02:13 | -15.86300 | -47.90796 | 3480 ft | 13 kts | 133° |
| 2026-05-06 02:13 | -15.86352 | -47.90739 | 3483 ft | 9 kts | 133° |
| 2026-05-06 02:14 | -15.86407 | -47.90708 | 3482 ft | 9 kts | 182° |
| 2026-05-06 02:14 | -15.86423 | -47.90764 | 3481 ft | 9 kts | 269° |
| 2026-05-06 02:14 | -15.86427 | -47.90838 | 3481 ft | 12 kts | 266° |
| 2026-05-06 02:14 | -15.86435 | -47.90961 | 3475 ft | 22 kts | 266° |
| 2026-05-06 02:15 | -15.86446 | -47.91133 | 3469 ft | 25 kts | 266° |
| 2026-05-06 02:15 | -15.86458 | -47.91304 | 3468 ft | 23 kts | 265° |
| 2026-05-06 02:15 | -15.86467 | -47.91467 | 3464 ft | 22 kts | 266° |
| 2026-05-06 02:15 | -15.86480 | -47.91621 | 3463 ft | 17 kts | 250° |
| 2026-05-06 02:16 | -15.86588 | -47.91628 | 3469 ft | 16 kts | 172° |
| 2026-05-06 02:16 | -15.86699 | -47.91618 | 3471 ft | 16 kts | 176° |
| 2026-05-06 02:16 | -15.86806 | -47.91611 | 3471 ft | 15 kts | 176° |
| 2026-05-06 02:16 | -15.86894 | -47.91632 | 3471 ft | 13 kts | 246° |
| 2026-05-06 02:17 | -15.86903 | -47.91726 | 3471 ft | 13 kts | 266° |
| 2026-05-06 02:17 | -15.86884 | -47.91787 | 3471 ft | 8 kts | 1° |
| 2026-05-06 02:17 | -15.86845 | -47.91788 | 3471 ft | 0 kts | 356° |